Main page
METAR-TAF:

METAR-TAF

Airports :

Oxford Airport

Oxford, England

latitude: 51-50-13N, longitude: 1-19-12W, elevation: 82 m

Current weather observation

The report was made 28 minutes ago, at 07:20 UTC
Wind 7 kt from the Southwest
Temperature 15°C
Humidity 88%
Pressure 1002 hPa
Visibility 10 km or more
Few clouds at a height of 2800 ft

METAR: EGTK 180720Z 22007KT 9999 FEW028 15/13 Q1002

Time: 08:48 (07:48 UTC)

Forecast

The report was made 1 hour and 54 minutes ago, at 05:54 UTC
Forecast valid from 18 at 06 UTC to 18 at 15 UTC
Wind 8 kt from the Southwest
Visibility 10 km or more
Few clouds at a height of 2500 ft
Probability 30% :
Temporary
from 18 at 12 UTC to 18 at 15 UTC
Wind 15 kt from the West/Southwest with gusts up to 25 kt
Visibility: 8000 m
rain showers

TAF: EGTK 180554Z 1806/1815 23008KT 9999 FEW025 PROB30 TEMPO 1812/1815 25015G25KT 8000 SHRA

Weather observations and forecasts of more than 4000 airports (METAR and TAF reports).

The available stations are represented by yellow and red dots on the map.

Hover mouse over dot to see the name of the station.

Then click to see weather observations and forecasts.

To change the map : click on the green buttons with a black cross to zoom in, on the green button with a dash to zoom out, or on the green arrows for adjacent maps.


METAR-TAF: